Latest Weather Observations for Norah Head

IDN60801

Issued at 9:04 pm EDT Thursday 18 December 2014 (issued every 30 minutes, with the page automatically refreshed every 10 minutes)

About weather observations | Map of weather stations | Latest weather observations for NSW | Other Formats
Station Details ID: 061366 Name: NORAH HEAD AWS Lat: -33.28 Lon: 151.58 Height: 18.8 m
Data from the previous 72 hours. | See also: Recent months at Norah Head
Date/Time
EDT
Temp
°C
App
Temp
°C
Dew
Point
Rel
Hum
%
Delta-T
°C
Wind Press
QNH
hPa
Press
MSL
hPa
Rain
since 9 am
mm
Dir
 
Spd
km/h
Gust
km/h
Spd
kts
Gust
kts
18/09:00pm 21.5 23.3 20.3 93 0.8 NE 11 15 6 8 1005.7 1005.7 0.0
18/08:30pm 21.8 22.5 20.4 92 0.9 NE 17 20 9 11 1005.3 1005.3 0.0
18/08:00pm 22.1 22.4 20.4 90 1.1 ENE 19 20 10 11 1005.2 1005.2 0.0
18/07:30pm 22.3 23.1 20.6 90 1.1 ENE 17 19 9 10 1004.9 1004.9 0.0
18/07:00pm 22.5 23.9 21.0 91 1.0 NE 15 20 8 11 1004.7 1004.7 0.0
18/06:30pm 22.2 22.4 20.5 90 1.1 NNE 20 24 11 13 1004.1 1004.1 0.0
18/06:00pm 22.4 21.0 20.5 89 1.2 NE 28 32 15 17 1003.7 1003.7 0.0
18/05:30pm 22.8 22.2 20.5 87 1.5 NE 24 30 13 16 1003.7 1003.7 0.0
18/05:00pm 23.0 22.0 20.5 86 1.6 NE 26 32 14 17 1003.6 1003.6 0.0
18/04:30pm 23.4 23.1 20.3 83 2.0 NE 22 30 12 16 1004.2 1004.2 0.0
18/04:00pm 23.6 23.3 20.3 82 2.1 NE 22 26 12 14 1004.5 1004.5 0.0
18/03:30pm 23.8 24.1 20.7 83 2.0 NNE 20 22 11 12 1005.1 1005.1 0.0
18/03:00pm 23.8 24.4 20.3 81 2.3 NE 17 20 9 11 1005.9 1005.9 0.0
18/02:30pm 23.5 23.5 19.8 80 2.4 NE 19 22 10 12 1006.2 1006.2 0.0
18/02:00pm 24.6 26.4 20.3 77 2.8 ENE 11 15 6 8 1006.2 1006.2 0.0
18/01:30pm 24.7 25.7 20.2 76 2.9 ENE 15 20 8 11 1006.7 1006.7 0.0
18/01:00pm 24.2 25.2 19.5 75 3.0 E 13 15 7 8 1007.1 1007.1 0.0
18/12:30pm 25.2 26.1 20.0 73 3.4 E 15 17 8 9 1007.2 1007.2 0.0
18/12:00pm 25.0 26.2 19.8 73 3.4 E 13 15 7 8 1007.5 1007.5 0.0
18/11:30am 23.6 25.3 19.3 77 2.7 E 9 13 5 7 1008.0 1008.0 0.0
18/11:00am 23.9 25.2 19.4 76 2.9 ESE 11 13 6 7 1008.1 1008.1 0.0
18/10:30am 23.2 24.5 19.4 79 2.4 ESE 11 15 6 8 1008.3 1008.3 0.0
18/10:00am 22.6 23.9 19.2 81 2.2 ESE 11 13 6 7 1008.7 1008.7 0.0
18/09:30am 22.2 23.4 19.0 82 2.0 ENE 11 15 6 8 1008.9 1008.9 0.0
18/09:00am 21.9 24.0 19.3 85 1.7 NE 7 11 4 6 1009.9 1009.8 0.0
18/08:30am 21.4 21.7 18.8 85 1.6 ENE 15 19 8 10 1009.7 1009.6 0.0
18/08:00am 21.1 20.8 18.3 84 1.7 E 17 19 9 10 1009.7 1009.6 0.0
18/07:30am 21.0 20.6 18.0 83 1.9 E 17 19 9 10 1009.6 1009.5 0.0
18/07:00am 20.9 20.0 17.7 82 2.0 ENE 19 22 10 12 1009.5 1009.4 0.0
18/06:30am 20.8 19.8 17.6 82 2.0 ENE 19 20 10 11 1008.8 1008.8 0.0
18/06:00am 20.7 20.1 17.5 82 2.0 ENE 17 19 9 10 1009.0 1009.0 0.0
18/05:30am 20.6 20.7 17.4 82 2.0 ENE 13 17 7 9 1008.8 1008.8 0.0
18/05:00am 20.6 20.3 17.4 82 2.0 ENE 15 17 8 9 1008.5 1008.5 0.0
18/04:30am 20.4 20.3 17.0 81 2.1 ENE 13 17 7 9 1008.0 1008.0 0.0
18/04:00am 20.6 21.2 16.8 79 2.3 ENE 9 9 5 5 1008.3 1008.3 0.0
18/03:30am 20.8 21.5 17.0 79 2.3 E 9 13 5 7 1008.7 1008.7 0.0
18/03:00am 20.7 21.5 16.3 76 2.7 E 7 11 4 6 1009.1 1009.1 0.0
18/02:30am 20.6 20.8 15.8 74 2.9 E 9 11 5 6 1009.6 1009.5 0.0
18/02:00am 20.6 21.2 15.4 72 3.1 E 6 9 3 5 1010.2 1010.1 0.0
18/01:30am 20.6 20.1 15.8 74 2.9 E 13 15 7 8 1010.0 1009.9 0.0
18/01:00am 20.7 21.0 16.1 75 2.8 E 9 13 5 7 1010.0 1009.9 0.0
18/12:30am 20.7 21.0 15.9 74 2.9 E 9 11 5 6 1010.5 1010.4 0.0
18/12:00am 20.7 20.9 15.7 73 3.0 ESE 9 11 5 6 1010.8 1010.7 0.0
 
Date/Time
EDT
Temp
°C
App
Temp
°C
Dew
Point
Rel
Hum
%
Delta-T
°C
Wind Press
QNH
hPa
Press
MSL
hPa
Rain
since 9 am
mm
Dir
 
Spd
km/h
Gust
km/h
Spd
kts
Gust
kts
17/11:30pm 20.7 20.8 15.5 72 3.1 ESE 9 9 5 5 1011.2 1011.1 0.0
17/11:00pm 20.5 19.0 15.3 72 3.1 SE 17 20 9 11 1010.9 1010.8 0.0
17/10:30pm 20.4 20.8 15.2 72 3.1 SSE 7 9 4 5 1011.1 1011.0 0.0
17/10:00pm 20.4 19.6 15.2 72 3.1 SE 13 15 7 8 1011.2 1011.1 0.0
17/09:30pm 20.3 18.3 14.9 71 3.2 SE 19 22 10 12 1010.6 1010.5 0.0
17/09:00pm 20.3 18.3 14.9 71 3.2 SE 19 22 10 12 1010.3 1010.2 0.0
17/08:30pm 20.3 18.6 14.7 70 3.3 SE 17 22 9 12 1010.5 1010.4 0.0
17/08:00pm 20.2 18.0 14.3 69 3.4 SE 19 20 10 11 1010.4 1010.3 0.0
17/07:30pm 20.3 18.5 14.4 69 3.4 SE 17 20 9 11 1010.1 1010.0 0.0
17/07:00pm 20.3 17.5 14.4 69 3.4 SE 22 28 12 15 1009.5 1009.4 0.0
17/06:30pm 20.3 17.1 14.2 68 3.5 SE 24 28 13 15 1008.5 1008.5 0.0
17/06:00pm 20.3 16.3 14.2 68 3.5 SSE 28 33 15 18 1008.1 1008.1 0.0
17/05:30pm 20.7 16.9 14.6 68 3.6 SSE 28 32 15 17 1007.8 1007.8 0.0
17/05:00pm 20.8 16.6 14.7 68 3.6 SSE 30 33 16 18 1007.5 1007.5 0.0
17/04:30pm 21.0 16.7 14.4 66 3.9 SSE 30 35 16 19 1007.4 1007.4 0.0
17/04:00pm 21.5 17.1 15.1 67 3.8 SSE 32 37 17 20 1007.2 1007.2 0.0
17/03:30pm 21.6 17.1 15.0 66 3.9 SSE 32 37 17 20 1007.5 1007.5 0.0
17/03:00pm 21.8 17.4 15.2 66 3.9 SSE 32 35 17 19 1007.5 1007.5 0.0
17/02:30pm 21.5 16.9 15.1 67 3.8 SSE 33 37 18 20 1007.4 1007.4 0.0
17/02:00pm 22.0 17.4 15.1 65 4.1 SSE 33 39 18 21 1007.4 1007.4 0.0
17/01:30pm 21.8 16.7 14.7 64 4.2 S 35 39 19 21 1007.2 1007.2 0.0
17/01:00pm 21.7 16.3 15.1 66 3.9 S 37 44 20 24 1007.0 1007.0 0.0
17/12:30pm 21.6 16.2 15.0 66 3.9 S 37 43 20 23 1007.3 1007.3 0.0
17/12:00pm 21.5 16.4 14.9 66 3.9 S 35 43 19 23 1007.4 1007.4 0.0
17/11:30am 21.4 16.5 15.3 68 3.6 S 35 44 19 24 1007.4 1007.4 0.0
17/11:00am 21.3 16.4 15.4 69 3.5 S 35 43 19 23 1007.1 1007.1 0.0
17/10:30am 20.7 15.3 15.0 70 3.4 S 37 44 20 24 1007.0 1007.0 0.0
17/10:00am 20.9 15.0 15.7 72 3.1 S 41 50 22 27 1006.5 1006.5 0.0
17/09:30am 20.7 14.5 15.9 74 2.9 S 43 54 23 29 1005.9 1005.9 0.0
17/09:00am 20.6 14.0 16.4 77 2.5 S 46 56 25 30 1005.6 1005.6 0.0
17/08:30am 21.0 14.7 17.2 79 2.3 S 46 57 25 31 1005.1 1005.1 0.0
17/08:00am 20.8 14.4 16.8 78 2.4 S 46 59 25 32 1004.4 1004.4 0.0
17/07:30am 20.7 14.5 17.3 81 2.1 S 46 63 25 34 1003.8 1003.8 0.0
17/07:01am 20.4 14.6 17.4 83 1.8 S 44 65 24 35 1002.7 1002.7 0.0
17/07:00am 20.4 14.2 17.4 83 1.8 S 46 65 25 35 1002.7 1002.7 0.0
17/06:53am 20.4 14.7 17.6 84 1.7 S 44 65 24 35 1002.6 1002.6 0.0
17/06:30am 20.4 14.9 18.2 87 1.4 SSW 44 59 24 32 1002.0 1002.0 0.0
17/06:00am 20.8 16.3 18.2 85 1.6 S 39 52 21 28 1001.4 1001.4 0.0
17/05:44am 23.2 21.9 15.8 63 4.5 WSW 17 52 9 28 1000.4 1000.4 0.0
17/05:42am 23.7 23.5 15.7 61 4.8 W 11 39 6 21 1000.4 1000.4 0.0
17/05:30am 23.8 23.6 13.6 52 5.9 WNW 7 13 4 7 999.0 998.9 0.0
17/05:00am 23.7 23.6 13.8 53 5.8 WNW 7 13 4 7 998.2 998.1 0.0
17/04:30am 23.0 22.7 13.2 54 5.7 WNW 7 11 4 6 998.1 998.0 0.0
17/04:00am 23.1 22.5 12.4 51 6.1 NW 7 9 4 5 998.0 997.9 0.0
17/03:30am 24.9 24.0 12.5 46 7.1 WNW 9 15 5 8 997.9 997.8 0.0
17/03:00am 24.7 23.9 13.0 48 6.8 WNW 9 15 5 8 997.9 997.8 0.0
17/02:30am 23.0 23.1 13.8 56 5.4 WNW 6 9 3 5 998.1 998.0 0.0
17/02:00am 22.4 22.6 14.8 62 4.5 WNW 7 11 4 6 998.1 998.0 0.0
17/01:30am 21.4 22.0 15.9 71 3.3 NW 7 11 4 6 998.2 998.1 0.0
17/01:00am 20.6 20.9 17.0 80 2.2 NW 11 13 6 7 998.5 998.4 0.0
17/12:30am 21.4 22.7 18.4 83 1.9 N 9 11 5 6 998.9 998.8 0.0
17/12:00am 21.6 23.8 18.4 82 2.0 N 4 6 2 3 999.1 999.0 0.0
 
Date/Time
EDT
Temp
°C
App
Temp
°C
Dew
Point
Rel
Hum
%
Delta-T
°C
Wind Press
QNH
hPa
Press
MSL
hPa
Rain
since 9 am
mm
Dir
 
Spd
km/h
Gust
km/h
Spd
kts
Gust
kts
16/11:30pm 21.1 22.2 17.9 82 2.0 NNW 9 11 5 6 999.1 999.0 0.0
16/11:00pm 21.0 21.8 18.2 84 1.8 N 11 13 6 7 999.3 999.2 0.0
16/10:30pm 21.6 22.7 18.8 84 1.8 N 11 15 6 8 999.3 999.2 0.0
16/10:00pm 22.0 23.1 18.8 82 2.0 N 11 17 6 9 999.2 999.1 0.0
16/09:30pm 22.8 21.9 19.0 79 2.4 NNE 22 26 12 14 998.9 998.8 0.0
16/09:00pm 22.3 22.7 19.1 82 2.0 NNE 15 20 8 11 998.8 998.7 0.0
16/08:30pm 22.0 21.9 19.5 86 1.6 NNE 19 22 10 12 998.5 998.4 0.0
16/08:00pm 22.4 19.3 19.6 84 1.8 NNE 35 39 19 21 998.3 998.2 0.0
16/07:30pm 22.3 19.1 19.5 84 1.8 NNE 35 41 19 22 998.0 997.9 0.0
16/07:00pm 22.3 17.5 19.3 83 1.9 NNE 43 50 23 27 997.5 997.4 0.0
16/06:30pm 22.1 17.1 19.3 84 1.8 NNE 44 52 24 28 997.7 997.6 0.0
16/06:00pm 21.9 16.5 19.3 85 1.7 NNE 46 52 25 28 997.9 997.8 0.0
16/05:30pm 21.9 16.1 19.1 84 1.8 NNE 48 57 26 31 997.9 997.8 0.0
16/05:00pm 22.2 16.0 19.2 83 1.9 NE 50 59 27 32 998.1 998.0 0.0
16/04:30pm 22.2 16.3 19.0 82 2.0 NNE 48 57 26 31 998.9 998.8 0.0
16/04:00pm 22.2 16.3 19.0 82 2.0 NNE 48 56 26 30 999.6 999.6 0.0
16/03:30pm 22.5 17.6 19.1 81 2.2 NNE 43 50 23 27 1000.7 1000.7 0.0
16/03:00pm 22.3 17.1 18.7 80 2.3 NNE 44 54 24 29 1001.3 1001.3 0.0
16/02:30pm 22.3 16.3 18.7 80 2.3 NNE 48 57 26 31 1000.9 1000.9 0.0
16/02:00pm 22.0 16.9 19.0 83 1.9 NNE 44 52 24 28 1001.9 1001.9 0.0
16/01:30pm 22.5 17.5 18.9 80 2.3 NE 43 50 23 27 1002.6 1002.6 0.0
16/01:00pm 22.9 18.8 19.1 79 2.4 NE 39 46 21 25 1003.5 1003.5 0.0
16/12:30pm 23.0 19.5 19.6 81 2.2 NE 37 44 20 24 1004.1 1004.1 0.0
16/12:00pm 22.0 19.6 19.0 83 1.9 NNE 30 35 16 19 1005.2 1005.2 0.0
16/11:30am 21.5 18.7 18.1 81 2.1 NE 30 33 16 18 1005.4 1005.4 0.0
16/11:00am 22.2 20.3 17.6 75 2.9 NE 24 28 13 15 1005.7 1005.7 0.0
16/10:30am 23.0 19.9 17.5 71 3.4 ENE 30 33 16 18 1005.6 1005.6 0.0
16/10:00am 23.2 23.2 18.9 77 2.7 NE 17 20 9 11 1007.2 1007.2 0.0
16/09:30am 21.5 20.1 16.5 73 3.0 NNE 19 24 10 13 1007.9 1007.9 0.0
16/09:00am 22.4 19.4 16.7 70 3.5 NNE 28 32 15 17 1006.6 1006.6 0.0
16/08:30am 22.1 19.0 16.6 71 3.3 NNE 28 32 15 17 1006.6 1006.6 0.0
16/08:00am 21.4 17.7 16.1 72 3.2 NNE 30 37 16 20 1006.8 1006.8 0.0
16/07:30am 21.1 18.9 16.9 77 2.6 NNE 24 26 13 14 1006.5 1006.5 0.0
16/07:00am 20.4 19.4 16.6 79 2.3 N 17 19 9 10 1006.6 1006.6 0.0
16/06:30am 19.7 18.3 16.5 82 1.9 N 19 22 10 12 1006.7 1006.7 0.0
16/06:00am 19.1 18.3 16.1 83 1.8 N 15 19 8 10 1006.8 1006.8 0.0
16/05:30am 19.2 18.0 16.2 83 1.8 N 17 19 9 10 1007.1 1007.1 0.0
16/05:00am 19.4 18.0 16.6 84 1.7 NNE 19 20 10 11 1006.8 1006.8 0.0
16/04:30am 19.3 18.3 16.5 84 1.7 N 17 19 9 10 1007.2 1007.2 0.0
16/04:00am 19.5 17.5 16.5 83 1.8 N 22 26 12 14 1007.2 1007.2 0.0
16/03:30am 20.1 16.4 16.9 82 1.9 NNE 32 35 17 19 1007.2 1007.2 0.0
16/03:00am 20.1 16.8 17.1 83 1.8 NNE 30 35 16 19 1007.4 1007.4 0.0
16/02:30am 20.3 17.1 17.3 83 1.8 NNE 30 32 16 17 1008.3 1008.3 0.0
16/02:00am 20.4 17.3 17.4 83 1.8 NNE 30 33 16 18 1008.7 1008.7 0.0
16/01:30am 20.5 17.3 17.3 82 2.0 NNE 30 35 16 19 1008.9 1008.9 0.0
16/01:00am 20.4 17.2 17.2 82 2.0 NNE 30 33 16 18 1009.1 1009.1 0.0
16/12:30am 20.4 18.0 17.4 83 1.8 NNE 26 30 14 16 1010.0 1009.9 0.0
16/12:00am 20.7 18.5 17.9 84 1.7 NNE 26 30 14 16 1010.2 1010.1 0.0
 
Date/Time
EDT
Temp
°C
App
Temp
°C
Dew
Point
Rel
Hum
%
Delta-T
°C
Wind Press
QNH
hPa
Press
MSL
hPa
Rain
since 9 am
mm
Dir
 
Spd
km/h
Gust
km/h
Spd
kts
Gust
kts
15/11:30pm 20.7 18.1 17.7 83 1.8 NNE 28 33 15 18 1010.2 1010.1 0.0
15/11:00pm 20.7 18.0 17.5 82 2.0 NNE 28 32 15 17 1010.6 1010.5 0.0
15/10:30pm 20.9 18.1 17.3 80 2.2 NNE 28 33 15 18 1010.8 1010.7 0.0
15/10:00pm 20.9 18.3 16.9 78 2.4 NNE 26 32 14 17 1010.8 1010.7 0.0
15/09:30pm 20.8 18.0 16.4 76 2.7 NNE 26 32 14 17 1010.5 1010.4 0.0

Other Formats:

Comma delimited format used in spreadsheet applications
http://www.bom.gov.au/fwo/IDN60801/IDN60801.95770.axf

JavaScript Object Notation format (JSON) in row-major order
http://www.bom.gov.au/fwo/IDN60801/IDN60801.95770.json